Airports Luxembourg Luxembourg-Findel International Airport

Luxembourg-Findel International Airport (ELLX / LUX)

Facts about Luxembourg-Findel International Airport

Name Luxembourg-Findel International Airport
City Luxemburg
Country Luxembourg
ICAO code ELLX
IATA code LUX
Elevation 376.1232 meters (1234 feet)

Weather

METAR

Metar data retrieved Friday, 19 July 2024 at 23:55 UTC (14 minutes ago)

ELLX 192320Z AUTO 05007KT 9999 NCD 21/15 Q1016 NOSIG

Live traffic

Navigraph Charts (account required)